Tiempo atmosférico en la estación meteorológica de Almería Aeropuerto, Almería (21 m.)



Fecha
DESCASC
Temp. máxima en grados centígrados (hora)
DESCASC
Temp. mínima en grados centígrados (hora)
DESCASC
Temp. media en grados centígrados
DESCASC
Racha de viento máxima en m/sg (hora)
DESCASC
Velocidad máxima media en intervalos de 10 minutos(hora)
DESCASC
Precipitaciones diarias en mm
DESCASC
Precipitaciones de 00:00 a 06:00 en mm
DESCASC
Precipitaciones de 06:00 a 12:00 en mm
DESCASC
Precipitaciones de 12:00 a 18:00 en mm
DESCASC
Precipitaciones de 18:00 a 24:00 en mm
DESCASC
18-02-2018 19.4 (14:00) 10.4 (04:40) 14.9 11.39 (13:30) 8.33 (18:10) 0 0 0 0 0
17-02-2018 17.2 (14:40) 9.6 (08:00) 13.4 4.72 (08:50) 3.61 (14:00) 0 0 0 0 0
16-02-2018 17.1 (11:50) 8.8 (07:10) 13 5.83 (12:50) 4.44 (13:10) 0 0 0 0 0
15-02-2018 17.7 (14:10) 7.9 (00:00) 12.8 4.72 (00:50) 3.61 (01:00) 0 0 0 0 0
14-02-2018 17.4 (15:50) 7.1 (00:00) 12.2 8.89 (17:10) 6.39 (17:10) 0 0 0 0 0
13-02-2018 16.7 (16:20) 8.3 (00:00) 12.5 16.11 (18:10) 11.94 (16:40) 0 0 0 0 0
12-02-2018 20.1 (14:00) 7.6 (00:00) 13.9 15.28 (16:20) 10.28 (15:40) 0 0 0 0 0
11-02-2018 16.5 (15:10) 7.1 (00:00) 11.8 11.67 (12:10) 8.89 (11:40) 0 0 0 0 0
10-02-2018 17 (13:20) 6.1 (00:00) 11.5 10.28 (05:10) 6.67 (05:10) 0 0 0 0 0
09-02-2018 14.7 (14:10) 6.2 (00:00) 10.4 9.17 (09:00) 6.11 (05:30) 0 0 0 0 0
08-02-2018 15.6 (13:30) 6.6 (00:00) 11.1 12.78 (14:20) 7.78 (14:20) 0 0 0 0 0
07-02-2018 15 (14:20) 8.2 (00:00) 11.6 12.5 (01:20) 8.33 (01:10) 0 0 0 0 0
06-02-2018 14.4 (13:30) 5.4 (00:00) 9.9 16.11 (20:50) 9.72 (21:00) 0 0 0 0 0
05-02-2018 14 (14:10) 5.8 (00:00) 9.9 11.39 (19:20) 6.67 (19:20) 0.5 0.5 0 0 0
04-02-2018 14.6 (12:10) 5.9 (00:00) 10.3 15.28 (11:50) 11.11 (12:00) 2.8 0 0 0 2.8
03-02-2018 15.8 (13:50) 7.2 (00:00) 11.5 18.61 (03:00) 11.39 (03:00) 0 0 0 0 0
02-02-2018 14.8 (00:00) 8.1 (00:00) 11.5 20 (12:40) 13.89 (12:40) 1.8 0.2 1.6 0 0
01-02-2018 17.7 (14:30) 11.3 (00:00) 14.5 13.89 (12:50) 10.28 (12:50) 0 0 0 0 0
31-01-2018 19.1 (13:20) 8.7 (00:00) 13.9 12.78 (13:50) 9.72 (14:10) 0.3 0 0 0 0.3
30-01-2018 18.6 (14:50) 10.5 (00:00) 14.6 16.11 (14:30) 11.11 (15:10) 0 0 0 0 0
29-01-2018 18.8 (14:50) 13.3 (00:00) 16 20 (03:40) 13.61 (14:00) 0 0 0 0 0
28-01-2018 15.5 (22:30) 9.1 (00:00) 12.3 18.06 (23:50) 11.94 (23:50) 0.9 0 0.9 0 0
27-01-2018 17.8 (15:20) 10.9 (00:00) 14.3 15.28 (01:10) 10 (01:30) 0 0 0 0 0
26-01-2018 16.9 (16:10) 11.8 (00:00) 14.3 20.56 (08:10) 13.61 (08:10) 0 0 0 0 0
25-01-2018 16.7 (14:20) 12.1 (00:00) 14.4 17.5 (23:50) 11.94 (23:50) 0 0 0 0 0
24-01-2018 17.7 (12:10) 8.1 (00:00) 12.9 5.83 (03:40) 4.44 (13:20) 0 0 0 0 0
23-01-2018 17.9 (16:50) 6.9 (00:00) 12.4 5 (13:00) 3.61 (12:10) 0 0 0 0 0
22-01-2018 18.6 (10:40) 10.5 (00:00) 14.6 9.72 (02:20) 5.83 (02:20) 0 0 0 0 0

Gráficas

Temp. máximas Temp. mínimas Temp. medias Precipitaciones Rachas de viento máximas Velocidades máximas media en intervalos de 10 minutos

Datos horarios

Fecha y hora oficial Temperatura (ºC) Velocidad del viento (km/h) Dirección del viento Racha (km/h) Dirección de racha Precipitación (mm) Presión (hPa) Tendencia (hPa) Humedad (%)
2018-02-20 23:00:00 11.8 3 Norte 9 Norte 0 1009.3 -0.5 92
2018-02-20 22:00:00 12.1 6 Nordeste 11 Nordeste 0 1009.7 -0.3 91
2018-02-20 21:00:00 13.3 6 Oeste 26 Oeste 0 1009.9 0.3 90
2018-02-20 20:00:00 13.9 15 Oeste 24 Oeste 0 1009.8 -0.1 88
2018-02-20 19:00:00 14.5 10 Oeste 33 Sudoeste 0 1010 -0.3 83
2018-02-20 18:00:00 15.6 27 Sudoeste 39 Sudoeste 0 1009.6 -1.1 80
2018-02-20 17:00:00 16.5 28 Sudoeste 39 Sudoeste 0 1009.9 -1.4 77
2018-02-20 16:00:00 17.2 23 Sudoeste 41 Sudoeste 0 1010.3 -2.1 75
2018-02-20 15:00:00 16.9 32 Sudoeste 42 Sudoeste 0 1010.7 -2.5 75
2018-02-20 14:00:00 16.9 28 Sudoeste 39 Sudoeste 0 1011.3 -2.1 76
2018-02-20 13:00:00 16.9 18 Sudoeste 28 Sudoeste 0 1012.4 -1.2 72
2018-02-20 12:00:00 16 20 Sudoeste 26 Sudoeste 0 1013.2 -0.4 74
2018-02-20 11:00:00 14.4 10 Sudoeste 15 Sudoeste 0 1013.4 -0.2 69
2018-02-20 10:00:00 12.5 9 Noroeste 17 Noroeste 0 1013.6 0.3 68
2018-02-20 09:00:00 10.4 10 Noroeste 15 Norte 0 1013.6 0.2 76
2018-02-20 08:00:00 8.5 9 Noroeste 15 Noroeste 0 1013.6 0 86
2018-02-20 07:00:00 8.6 11 Noroeste 18 Noroeste 0 1013.3 -0.6 83
2018-02-20 06:00:00 8.7 13 Noroeste 18 Noroeste 0 1013.4 -0.8 86
2018-02-20 05:00:00 9.2 14 Noroeste 21 Noroeste 0 1013.6 -0.9 84
2018-02-20 04:00:00 9.3 13 Noroeste 21 Noroeste 0 1013.9 -0.7 85
2018-02-20 03:00:00 9.5 16 Noroeste 21 Noroeste 0 1014.2 -0.6 87
2018-02-20 02:00:00 9.8 16 Noroeste 22 Noroeste 0 1014.5 -0.8 88
2018-02-20 01:00:00 9.9 13 Noroeste 18 Norte 0 1014.6 -0.6 90
2018-02-20 00:00:00 9.3 10 Noroeste 15 Noroeste 0 1014.8 -0.3 95
2018-02-19 23:00:00 9.8 4 Nordeste 9 Noroeste 0 1015.3 0.5 94
2018-02-19 22:00:00 10.4 7 Norte 15 Noroeste 0 1015.2 0.7 94
2018-02-19 21:00:00 10.6 11 Noroeste 22 Noroeste 0 1015.1 0.9 94
2018-02-19 20:00:00 11.4 8 Norte 13 Norte 0 1014.8 0.7 93
2018-02-19 19:00:00 13.2 0 Calma 9 Oeste 0 1014.5 0.2 90
2018-02-19 18:00:00 14 5 Sudoeste 9 Sur 0.4 1014.2 -0.1 88
2018-02-19 17:00:00 14.9 5 Sudeste 13 Este 0 1014.1 -0.6 80
2018-02-19 16:00:00 14.2 7 Este 13 Nordeste 0 1014.3 -1 86
2018-02-19 15:00:00 14.7 5 Sur 11 Sur 0 1014.3 -1.4 80
2018-02-19 14:00:00 15.6 7 Sur 11 Sur 0 1014.7 -1 78
2018-02-19 13:00:00 14.9 6 Este 9 Este 0 1015.3 -0.3 81
2018-02-19 12:00:00 13.5 8 Noroeste 11 Norte 0 1015.7 0.3 91
2018-02-19 11:00:00 12.5 8 Noroeste 18 Noroeste 0.1 1015.7 0.6 93
2018-02-19 10:00:00 12.6 10 Oeste 13 Oeste 0.5 1015.6 0.8 95
2018-02-19 09:00:00 12.8 0 Calma 9 Norte 0.2 1015.4 0.5 91
2018-02-19 08:00:00 12.8 3 Noroeste 15 Norte 0 1015.1 0.3 91
2018-02-19 07:00:00 13 11 Norte 15 Norte 0 1014.8 -0.1 88
2018-02-19 06:00:00 12.7 7 Norte 13 Nordeste 0.9 1014.9 -0.7 92
2018-02-19 05:00:00 12.9 11 Nordeste 15 Nordeste 1.5 1014.8 -1.1 92
2018-02-19 04:00:00 13.6 9 Norte 13 Nordeste 0 1014.9 -1.4 82
2018-02-19 03:00:00 13.7 5 Norte 9 Nordeste 0 1015.6 -1.1 82
2018-02-19 02:00:00 13.6 8 Este 13 Este 0 1015.9 -1.1 83
2018-02-19 01:00:00 14 6 Nordeste 21 Este 0 1016.3 -0.9 80
2018-02-19 00:00:00 14.1 15 Este 24 Este 0 1016.7 -0.3 78
2018-02-18 23:00:00 14.1 14 Este 26 Este 0 1017 0 79
2018-02-18 22:00:00 14.3 17 Nordeste 28 Este 0 1017.2 0.5 79
2018-02-18 21:00:00 14.6 19 Este 30 Este 0 1017 0.5 76
2018-02-18 20:00:00 14.8 23 Este 33 Este 0 1017 0.6 74
2018-02-18 19:00:00 15.2 26 Este 37 Este 0 1016.7 0.4 69
2018-02-18 18:00:00 15.9 27 Este 37 Este 0 1016.5 -0.1 66
2018-02-18 17:00:00 16.9 24 Este 35 Este 0 1016.4 -0.9 61
2018-02-18 16:00:00 17.9 24 Este 37 Este 0 1016.3 -1.9 58
2018-02-18 15:00:00 19.2 30 Este 41 Este 0 1016.6 -2.2 55
2018-02-18 14:00:00 19.1 27 Este 41 Este 0 1017.3 -1.8 55
2018-02-18 13:00:00 18.6 23 Este 35 Nordeste 0 1018.2 -0.9 58
2018-02-18 12:00:00 17.8 20 Este 32 Este 0 1018.8 -0.1 60
2018-02-18 11:00:00 16.3 19 Nordeste 24 Nordeste 0 1019.1 0.8 63
2018-02-18 10:00:00 14.8 11 Norte 30 Nordeste 0 1019.1 1.1 64
2018-02-18 09:00:00 14.9 22 Nordeste 33 Nordeste 0 1018.9 1 67
2018-02-18 08:00:00 14.1 26 Nordeste 35 Nordeste 0 1018.3 0.4 69
2018-02-18 07:00:00 12.9 8 Norte 18 Nordeste 0 1018 0.2 74
2018-02-18 06:00:00 13.3 14 Nordeste 22 Nordeste 0 1017.9 -0.2 72
2018-02-18 05:00:00 10.6 10 Este 13 Este 0 1017.9 -0.5 81
2018-02-18 04:00:00 10.7 6 Norte 13 Norte 0 1017.8 -0.6 84
2018-02-18 03:00:00 10.9 11 Norte 17 Norte 0 1018.1 0 88
2018-02-18 02:00:00 12.6 9 Nordeste 13 Nordeste 0 1018.4 0.4 83
2018-02-18 01:00:00 12 11 Norte 17 Norte 0 1018.4 0.7 84
2018-02-18 00:00:00 11.1 5 Nordeste 11 Este 0 1018.1 0.5 89
2018-02-17 23:00:00 10.9 2 Norte 8 Norte 0 1018 0.6 89
2018-02-17 22:00:00 11.9 7 Nordeste 11 Nordeste 0 1017.7 0.7 88
2018-02-17 21:00:00 12.3 5 Nordeste 9 Norte 0 1017.6 0.9 89
2018-02-17 20:00:00 13.3 3 Norte 8 Norte 0 1017.4 0.7 88
2018-02-17 19:00:00 14.5 2 Sur 9 Sudoeste 0 1017 0.1 84
2018-02-17 18:00:00 15.7 8 Sudoeste 15 Sudoeste 0 1016.7 -0.4 79
2018-02-17 17:00:00 16.7 10 Sur 15 Sur 0 1016.7 -1.1 74
2018-02-17 16:00:00 16.9 11 Sur 15 Sur 0 1016.9 -1.8 73
2018-02-17 15:00:00 17 11 Sur 17 Sudoeste 0 1017.1 -2.1 72
2018-02-17 14:00:00 16.6 13 Sur 17 Sudoeste 0 1017.8 -1.5 74
2018-02-17 13:00:00 16.6 12 Sur 17 Sur 0 1018.7 -0.6 74
2018-02-17 12:00:00 16.4 10 Sur 15 Sur 0 1019.2 -0.1 73
2018-02-17 11:00:00 16 8 Sur 11 Sur 0 1019.3 0.5 73
2018-02-17 10:00:00 14.9 3 Este 8 Este 0 1019.3 0.7 72
2018-02-17 09:00:00 11.2 5 Norte 17 Norte 0 1019.3 0.8 87
2018-02-17 08:00:00 9.7 6 Norte 11 Norte 0 1018.8 0.2 93
2018-02-17 07:00:00 10.7 3 Norte 5 Norte 0 1018.6 -0.1 92
2018-02-17 06:00:00 11 0 Calma 9 Norte 0 1018.5 -0.7 89
2018-02-17 05:00:00 10.3 8 Norte 13 Norte 0 1018.6 -0.8 93
2018-02-17 04:00:00 10.2 6 Norte 11 Norte 0 1018.7 -1 96
2018-02-17 03:00:00 11.4 8 Norte 13 Norte 0 1019.2 -0.6 90
2018-02-17 02:00:00 11.7 6 Noroeste 13 Noroeste 0 1019.4 -0.4 92
2018-02-17 01:00:00 11.1 5 Norte 9 Norte 0 1019.7 -0.1 92
2018-02-17 00:00:00 11.3 7 Nordeste 8 Norte 0 1019.8 0 89
2018-02-16 23:00:00 11.5 0 Calma 9 Norte 0 1019.8 0.2 91
2018-02-16 22:00:00 11.9 5 Norte 8 Norte 0 1019.8 0.4 90
2018-02-16 21:00:00 12.4 6 Noroeste 8 Norte 0 1019.8 0.9 89
2018-02-16 20:00:00 13.6 3 Oeste 9 Sudoeste 0 1019.6 0.8 88
2018-02-16 19:00:00 14.5 6 Sudoeste 13 Sur 0 1019.4 0.3 83
2018-02-16 18:00:00 15.7 9 Sur 13 Sudoeste 0 1018.9 -0.6 78
2018-02-16 17:00:00 16.4 9 Sur 13 Sudoeste 0 1018.8 -1.4 75
2018-02-16 16:00:00 16.6 10 Sur 15 Sudoeste 0 1019.1 -2.1 75
2018-02-16 15:00:00 16.5 9 Sur 17 Sudoeste 0 1019.5 -2 75
2018-02-16 14:00:00 16.8 13 Sur 21 Sudoeste 0 1020.2 -1.6 74
2018-02-16 13:00:00 16.5 15 Sudoeste 21 Sudoeste 0 1021.2 -0.8 74
2018-02-16 12:00:00 16.8 10 Sur 13 Sur 0 1021.5 -0.3 59
2018-02-16 11:00:00 15.7 0 Calma 9 Sur 0 1021.8 0.9 62
2018-02-16 10:00:00 14.1 3 Oeste 11 Noroeste 0 1022 1.5 59
2018-02-16 09:00:00 10.8 9 Oeste 11 Oeste 0 1021.8 0.5 78
2018-02-16 08:00:00 9.7 10 Nordeste 13 Este 0 1020.9 -0.1 78
2018-02-16 07:00:00 9.6 4 Nordeste 13 Norte 0 1020.5 -0.7 87
2018-02-16 06:00:00 9.3 9 Noroeste 11 Noroeste 0 1021.3 0.1 86
2018-02-16 05:00:00 9.8 5 Noroeste 13 Norte 0 1021 -0.6 84
2018-02-16 04:00:00 9.9 8 Norte 11 Norte 0 1021.2 -1.1 85
2018-02-16 03:00:00 10.3 9 Nordeste 11 Nordeste 0 1021.2 -1.3 90
2018-02-16 02:00:00 10.4 6 Norte 11 Norte 0 1021.6 -0.5 84
2018-02-16 01:00:00 10.3 10 Noroeste 13 Norte 0 1022.3 0.2 80
2018-02-16 00:00:00 10.3 4 Oeste 9 Noroeste 0 1022.5 0.7 80
2018-02-15 23:00:00 11.1 7 Norte 9 Norte 0 1022.1 -0.2 78
2018-02-15 22:00:00 11.7 8 Norte 9 Nordeste 0 1022.1 0 78
2018-02-15 21:00:00 12.6 8 Norte 9 Norte 0 1021.8 0 89
2018-02-15 20:00:00 13.5 0 Calma 4 Sur 0 1022.3 0.9 88
2018-02-15 19:00:00 14.8 2 Sudoeste 9 Sudoeste 0 1022.1 0.7 81
2018-02-15 18:00:00 16.1 8 Sudoeste 13 Sur 0 1021.8 -0.1 77
2018-02-15 17:00:00 16.7 9 Sur 15 Sur 0 1021.4 -1.2 74
2018-02-15 16:00:00 17 12 Sur 15 Sur 0 1021.4 -1.3 73
2018-02-15 15:00:00 17 8 Sur 17 Sudoeste 0 1021.9 -1 73
2018-02-15 14:00:00 17.3 12 Sur 17 Sur 0 1022.6 -0.2 74
2018-02-15 13:00:00 17.1 13 Sur 17 Sur 0 1022.7 0.3 74
2018-02-15 12:00:00 16.4 9 Sur 15 Sur 0 1022.9 1 75
2018-02-15 11:00:00 16.5 12 Sur 17 Sudeste 0 1022.8 1.7 69
2018-02-15 10:00:00 15.9 10 Este 13 Nordeste 0 1022.4 1.7 53
2018-02-15 09:00:00 11.3 5 Norte 13 Norte 0 1021.9 1.8 66
2018-02-15 08:00:00 9 7 Nordeste 15 Noroeste 0 1021.1 1.1 73
2018-02-15 07:00:00 8.5 6 Norte 15 Norte 0 1020.7 0.9 76
2018-02-15 06:00:00 8.3 5 Norte 5 Norte 0 1020.1 0.2 78
2018-02-15 05:00:00 8.9 0 Calma 13 Noroeste 0 1020 0.2 75
2018-02-15 04:00:00 9.1 6 Norte 11 Norte 0 1019.8 -0.1 74
2018-02-15 03:00:00 9.2 4 Este 13 Sudeste 0 1019.9 0.1 72
2018-02-15 02:00:00 9.3 7 Este 13 Norte 0 1019.8 0 73
2018-02-15 01:00:00 10.9 13 Norte 17 Norte 0 1019.9 0.3 73
2018-02-15 00:00:00 11.4 9 Norte 17 Nordeste 0 1019.8 0.8 74
2018-02-14 23:00:00 12.2 13 Nordeste 21 Nordeste 0 1019.8 1 78
2018-02-14 22:00:00 12 13 Nordeste 15 Nordeste 0 1019.6 1.5 82
2018-02-14 21:00:00 12.3 9 Nordeste 11 Nordeste 0 1019 1.7 80
2018-02-14 20:00:00 13.7 0 Calma 21 Oeste 0 1018.8 1.5 78
2018-02-14 19:00:00 14.8 14 Sudoeste 26 Sudoeste 0 1018.1 0.8 76
2018-02-14 18:00:00 16 19 Sudoeste 32 Sudoeste 0 1017.3 -0.1 70
2018-02-14 17:00:00 16.8 18 Sudoeste 30 Sudoeste 0 1017.3 -0.4 63
2018-02-14 16:00:00 17.1 10 Sudeste 15 Sur 0 1017.3 -1.3 52
2018-02-14 15:00:00 16.8 10 Sur 18 Sur 0 1017.4 -1.6 56
2018-02-14 14:00:00 16.7 14 Sur 21 Sur 0 1017.7 -1.2 60
2018-02-14 13:00:00 16.2 13 Sur 17 Sudoeste 0 1018.6 0.2 57
2018-02-14 12:00:00 16 11 Sur 15 Sur 0 1019 0.9 50
2018-02-14 11:00:00 15.6 9 Sur 18 Sudeste 0 1018.9 1.4 48
2018-02-14 10:00:00 14.3 6 Nordeste 13 Nordeste 0 1018.4 1.1 42
2018-02-14 09:00:00 9.3 9 Norte 17 Nordeste 0 1018.1 1.3 52
2018-02-14 08:00:00 8.6 12 Nordeste 18 Norte 0 1017.5 0.9 52
2018-02-14 07:00:00 9.3 7 Noroeste 21 Noroeste 0 1017.3 -0.2 44
2018-02-14 06:00:00 8.7 15 Noroeste 21 Noroeste 0 1016.8 -0.6 49
2018-02-14 05:00:00 7.6 13 Norte 17 Norte 0 1016.6 -0.8 60
2018-02-14 04:00:00 7.9 10 Norte 13 Norte 0 1017.5 -0.2 56
2018-02-14 03:00:00 8.6 9 Norte 15 Norte 0 1017.4 -0.4 51
2018-02-14 02:00:00 10.1 10 Norte 18 Norte 0 1017.4 -0.5 46
2018-02-14 01:00:00 9.4 9 Norte 15 Oeste 0 1017.7 -0.2 51
2018-02-14 00:00:00 10.7 5 Sudoeste 21 Sudoeste 0 1017.8 0.2 67
2018-02-13 23:00:00 10.8 12 Noroeste 15 Noroeste 0 1017.9 1 72
2018-02-13 22:00:00 12 9 Oeste 26 Oeste 0 1017.9 1.5 73
2018-02-13 21:00:00 13.1 18 Oeste 39 Oeste 0 1017.6 1.3 69
2018-02-13 20:00:00 13.7 28 Oeste 45 Oeste 0 1016.9 0.3 65
2018-02-13 19:00:00 13.7 37 Oeste 58 Sudoeste 0 1016.4 -0.6 62
2018-02-13 18:00:00 14.9 43 Sudoeste 55 Oeste 0 1016.3 -1.2 53
2018-02-13 17:00:00 15.8 39 Sudoeste 55 Sudoeste 0 1016.6 -2 50
2018-02-13 16:00:00 16.1 34 Sudoeste 50 Sudoeste 0 1017 -2.5 55
2018-02-13 15:00:00 15.9 39 Sudoeste 50 Sudoeste 0 1017.5 -3.1 55
2018-02-13 14:00:00 16.5 28 Sudoeste 39 Sudoeste 0 1018.6 -2.2 52
2018-02-13 13:00:00 16.1 13 Sur 18 Sur 0 1019.5 -1.3 46
2018-02-13 12:00:00 16 11 Sur 15 Sur 0 1020.6 -0.1 47
2018-02-13 11:00:00 15 3 Norte 18 Norte 0 1020.8 0.7 45
2018-02-13 10:00:00 13.2 11 Norte 18 Norte 0 1020.8 0.9 49
2018-02-13 09:00:00 10.8 12 Norte 18 Norte 0 1020.7 1 61
2018-02-13 08:00:00 8.4 13 Norte 15 Norte 0 1020.1 0.7 74
2018-02-13 07:00:00 9.9 11 Norte 17 Norte 0 1019.9 0.8 66
2018-02-13 06:00:00 9.7 11 Norte 15 Nordeste 0 1019.7 0.3 68
2018-02-13 05:00:00 11 13 Norte 17 Norte 0 1019.4 0.4 64
2018-02-13 04:00:00 10.7 12 Nordeste 18 Nordeste 0 1019.1 0.4 68
2018-02-13 03:00:00 11.2 14 Nordeste 21 Nordeste 0 1019.4 1 67
2018-02-13 02:00:00 11.6 12 Nordeste 18 Norte 0 1019 1.2 70
2018-02-13 01:00:00 12 13 Norte 22 Nordeste 0 1018.7 1.6 69
2018-02-13 00:00:00 12.8 17 Nordeste 30 Nordeste 0 1018.4 2.5 67
2018-02-12 23:00:00 14.5 14 Este 39 Norte 0 1017.8 2.4 58
2018-02-12 22:00:00 14.6 4 Sur 24 Noroeste 0 1017.1 2.5 59
2018-02-12 21:00:00 15.9 14 Noroeste 33 Noroeste 0 1015.9 1.9 38
2018-02-12 20:00:00 14.5 11 Sudoeste 35 Sudoeste 0 1015.4 2.3 80
2018-02-12 19:00:00 15.8 29 Sudoeste 46 Sudoeste 0 1014.6 1.8 72
2018-02-12 18:00:00 17.2 12 Sudoeste 54 Sudoeste 0 1014 1 64
2018-02-12 17:00:00 18.9 30 Sudoeste 55 Sudoeste 0 1013.1 -0.7 56
2018-02-12 16:00:00 18.9 37 Sudoeste 54 Oeste 0 1012.8 -2 56
2018-02-12 15:00:00 18.9 33 Sudoeste 46 Sudoeste 0 1013 -2.7 58
2018-02-12 14:00:00 19.8 29 Sudoeste 42 Sudoeste 0 1013.8 -1.7 52
2018-02-12 13:00:00 17 10 Sudoeste 22 Sudoeste 0 1014.8 -1.2 68
2018-02-12 12:00:00 16.8 13 Sudoeste 18 Sudoeste 0 1015.7 -0.2 72
2018-02-12 11:00:00 16.8 8 Sudeste 13 Sudeste 0 1015.5 -0.4 73
2018-02-12 10:00:00 14.5 4 Este 9 Este 0 1016 0.3 78
2018-02-12 09:00:00 10.4 8 Nordeste 13 Norte 0 1015.9 0.1 90
2018-02-12 08:00:00 7.7 5 Norte 11 Noroeste 0 1015.9 0.4 93
2018-02-12 07:00:00 8.5 9 Nordeste 13 Nordeste 0 1015.7 -0.3 94
2018-02-12 06:00:00 8.1 9 Oeste 13 Oeste 0 1015.8 -0.8 87
2018-02-12 05:00:00 8.3 2 Sur 13 Norte 0 1015.5 -1.4 87
2018-02-12 04:00:00 8.8 12 Norte 18 Norte 0 1016 -1.5 77
2018-02-12 03:00:00 8.7 8 Norte 15 Norte 0 1016.6 -1.1 80
2018-02-12 02:00:00 9 2 Sur 9 Oeste 0 1016.9 -1 74
2018-02-12 01:00:00 9.1 5 Norte 11 Norte 0 1017.5 -0.6 78
2018-02-12 00:00:00 9.4 3 Norte 15 Norte 0 1017.7 -0.1 80
2018-02-11 23:00:00 9.5 8 Norte 11 Norte 0 1017.9 0 83
2018-02-11 22:00:00 10.3 9 Noroeste 13 Noroeste 0 1018.1 0.4 84
2018-02-11 21:00:00 12.2 10 Oeste 21 Oeste 0 1017.8 0.3 75
2018-02-11 20:00:00 13.3 14 Oeste 26 Sudoeste 0 1017.9 0.4 72
2018-02-11 19:00:00 13.9 21 Sudoeste 39 Sudoeste 0 1017.7 -0.2 74
2018-02-11 18:00:00 15.3 27 Sudoeste 37 Sudoeste 0 1017.5 -0.8 62
2018-02-11 17:00:00 15.9 25 Sudoeste 39 Sudoeste 0 1017.5 -1.7 55
2018-02-11 16:00:00 16.2 27 Sudoeste 39 Sudoeste 0 1017.9 -2 53
2018-02-11 15:00:00 16.2 28 Sudoeste 39 Sudoeste 0 1018.3 -2.3 54
2018-02-11 14:00:00 16 29 Sudoeste 41 Sudoeste 0 1019.2 -1.9 58
2018-02-11 13:00:00 16 31 Sudoeste 42 Sudoeste 0 1019.9 -1.1 55
2018-02-11 12:00:00 15.7 31 Sudoeste 41 Sudoeste 0 1020.6 0 51
2018-02-11 11:00:00 15.2 28 Sudoeste 39 Oeste 0 1021.1 1.1 51
2018-02-11 10:00:00 13.4 7 Oeste 13 Oeste 0 1021 1.2 41
2018-02-11 09:00:00 9.3 6 Noroeste 17 Norte 0 1020.6 1.4 45
2018-02-11 08:00:00 7.9 14 Noroeste 21 Noroeste 0 1020 0.7 45
2018-02-11 07:00:00 7.5 13 Noroeste 17 Noroeste 0 1019.8 0.7 48
2018-02-11 06:00:00 9.2 9 Noroeste 21 Noroeste 0 1019.2 0 41
2018-02-11 05:00:00 8.6 13 Oeste 24 Norte 0 1019.3 0 44
2018-02-11 04:00:00 10.2 17 Norte 28 Norte 0 1019.1 -0.1 39
2018-02-11 03:00:00 10.5 14 Norte 22 Norte 0 1019.2 -0.1 38
2018-02-11 02:00:00 10.3 14 Norte 24 Noroeste 0 1019.3 0.1 39
2018-02-11 01:00:00 10.4 16 Norte 26 Noroeste 0 1019.2 0 39
2018-02-11 00:00:00 10.7 18 Norte 30 Noroeste 0 1019.3 0.6 39
2018-02-10 23:00:00 11.5 18 Noroeste 32 Norte 0 1019.2 1.5 36
2018-02-10 22:00:00 10.6 4 Norte 17 Norte 0 1019.2 2.2 46
2018-02-10 21:00:00 9.8 7 Noroeste 18 Noroeste 0 1018.7 2.3 71
2018-02-10 20:00:00 10.4 6 Norte 11 Sur 0 1017.7 1.6 70
2018-02-10 19:00:00 12.9 8 Sur 17 Sur 0 1017 1 58
2018-02-10 18:00:00 14.8 12 Sur 18 Sur 0 1016.4 0.3 54
2018-02-10 17:00:00 15 11 Sur 21 Sur 0 1016.1 -0.3 60
2018-02-10 16:00:00 16 15 Sur 22 Sur 0 1016 -0.9 56
2018-02-10 15:00:00 16.5 18 Sur 30 Sur 0 1016.1 -1.6 51
2018-02-10 14:00:00 15.9 18 Sur 35 Noroeste 0 1016.4 -1.2 51
2018-02-10 13:00:00 16 22 Noroeste 35 Noroeste 0 1016.9 -0.4 26
2018-02-10 12:00:00 13.8 9 Sudoeste 21 Oeste 0 1017.7 0.8 48
2018-02-10 11:00:00 12.9 14 Oeste 17 Oeste 0 1017.6 1 53
2018-02-10 10:00:00 12.5 8 Sudoeste 22 Sudoeste 0 1017.3 1.1 57
2018-02-10 09:00:00 12.5 18 Oeste 37 Oeste 0 1016.9 0.7 47
2018-02-10 08:00:00 9.5 15 Oeste 24 Oeste 0 1016.6 0.4 48
2018-02-10 07:00:00 12.1 10 Oeste 24 Noroeste 0 1016.2 -0.6 39
2018-02-10 06:00:00 11.3 17 Noroeste 37 Norte 0 1016.2 -0.8 41
2018-02-10 05:00:00 10.6 15 Norte 26 Noroeste 0 1016.2 -1.2 44
2018-02-10 04:00:00 8.1 2 Norte 13 Nordeste 0 1016.8 -0.9 60
2018-02-10 03:00:00 7.4 6 Este 11 Este 0 1017 -1.1 65
2018-02-10 02:00:00 6.5 9 Este 15 Norte 0 1017.4 -1.1 71
2018-02-10 01:00:00 7.1 13 Norte 17 Norte 0 1017.7 -0.5 73
2018-02-10 00:00:00 8.3 7 Norte 13 Norte 0 1018.1 0.2 67
2018-02-09 23:00:00 8 8 Norte 13 Norte 0 1018.5 0.7 68
2018-02-09 22:00:00 8.3 11 Norte 15 Norte 0 1018.2 1 66
2018-02-09 21:00:00 8.8 11 Norte 18 Norte 0 1017.9 1.4 64
2018-02-09 20:00:00 9.8 6 Nordeste 9 Norte 0 1017.8 1.5 61
2018-02-09 19:00:00 11.2 4 Sur 17 Sudeste 0 1017.2 0.5 56
2018-02-09 18:00:00 12.8 13 Sur 24 Sur 0 1016.5 -0.3 52
2018-02-09 17:00:00 13.4 14 Sur 22 Sur 0 1016.3 -0.6 49
2018-02-09 16:00:00 13.3 13 Sur 22 Sur 0 1016.7 -0.8 48
2018-02-09 15:00:00 13.8 15 Sur 22 Sudeste 0 1016.8 -0.9 45
2018-02-09 14:00:00 14.3 12 Sur 24 Sudeste 0 1016.9 -0.6 51
2018-02-09 13:00:00 13.9 9 Sur 17 Sur 0 1017.5 -0.2 51
2018-02-09 12:00:00 13.6 9 Sur 15 Sur 0 1017.7 0.4 53
2018-02-09 11:00:00 12.3 6 Norte 22 Noroeste 0 1017.5 0.8 35
2018-02-09 10:00:00 8.6 14 Noroeste 30 Noroeste 0 1017.7 1.5 46
2018-02-09 09:00:00 6.8 21 Norte 33 Noroeste 0 1017.3 1.1 51
2018-02-09 08:00:00 6.7 21 Noroeste 30 Noroeste 0 1016.7 0.8 50
2018-02-09 07:00:00 7.6 17 Noroeste 28 Noroeste 0 1016.2 0.2 46
2018-02-09 06:00:00 8.2 19 Noroeste 28 Noroeste 0 1016.2 -0.2 46
2018-02-09 05:00:00 8.5 18 Noroeste 26 Noroeste 0 1015.9 -0.7 46
2018-02-09 04:00:00 9.1 15 Noroeste 24 Noroeste 0 1016 -0.9 48
2018-02-09 03:00:00 8.2 16 Noroeste 22 Noroeste 0 1016.4 -0.7 61
2018-02-09 02:00:00 8.4 15 Noroeste 24 Noroeste 0 1016.6 -0.7 63
2018-02-09 01:00:00 9.4 9 Norte 17 Noroeste 0 1016.9 0 66
2018-02-09 00:00:00 9.3 12 Noroeste 15 Norte 0 1017.1 0.6 66
2018-02-08 23:00:00 10 10 Norte 13 Norte 0 1017.3 1.4 64
2018-02-08 22:00:00 10.7 11 Norte 15 Norte 0 1016.9 1.5 62
2018-02-08 21:00:00 10.5 10 Norte 15 Norte 0 1016.5 1.6 60
2018-02-08 20:00:00 10.4 13 Nordeste 18 Nordeste 0 1015.9 1.6 60
2018-02-08 19:00:00 11.1 12 Este 21 Este 0 1015.4 1.3 59
2018-02-08 18:00:00 12.5 14 Este 24 Este 0 1014.9 0.8 50
2018-02-08 17:00:00 14.5 13 Este 28 Este 0 1014.3 0.2 45
2018-02-08 16:00:00 15.1 13 Este 33 Este 0 1014.1 -0.6 39
2018-02-08 15:00:00 15 21 Este 46 Sudeste 0 1014.1 -1.4 42
2018-02-08 14:00:00 14.9 27 Sudeste 39 Sudeste 0 1014.1 -1.4 43
2018-02-08 13:00:00 15.3 18 Este 32 Este 0 1014.7 -0.7 37
2018-02-08 12:00:00 14.2 18 Este 26 Este 0 1015.5 0.4 43
2018-02-08 11:00:00 11.9 7 Norte 30 Norte 0 1015.5 0.6 49
2018-02-08 10:00:00 9.3 20 Noroeste 33 Noroeste 0 1015.4 1.1 52
2018-02-08 09:00:00 7.4 24 Noroeste 37 Norte 0 1015.1 1 59
2018-02-08 08:00:00 6.6 20 Noroeste 33 Noroeste 0 1014.9 1 65
2018-02-08 07:00:00 7.1 21 Noroeste 32 Noroeste 0 1014.3 0.5 65
2018-02-08 06:00:00 7.1 19 Norte 32 Noroeste 0 1014.1 0.1 68
2018-02-08 05:00:00 7.9 20 Noroeste 32 Noroeste 0 1013.9 -0.1 66
2018-02-08 04:00:00 7.9 18 Norte 32 Noroeste 0 1013.8 -0.3 66
2018-02-08 03:00:00 8.2 20 Noroeste 30 Noroeste 0 1014 -0.2 65
2018-02-08 02:00:00 8.6 5 Norte 24 Noroeste 0 1014 0.1 63
2018-02-08 01:00:00 8.4 13 Norte 22 Norte 0 1014.1 0.6 64
2018-02-08 00:00:00 9.1 13 Noroeste 21 Noroeste 0 1014.2 1 62
2018-02-07 23:00:00 8.8 14 Norte 22 Norte 0 1013.9 1 62
2018-02-07 22:00:00 9.3 14 Norte 18 Norte 0 1013.5 1.4 61
2018-02-07 21:00:00 9.6 15 Norte 18 Nordeste 0 1013.2 1.7 60
2018-02-07 20:00:00 10.3 10 Nordeste 15 Nordeste 0 1012.9 1.6 59
2018-02-07 19:00:00 11.6 5 Sur 11 Sur 0 1012.1 1.2 51
2018-02-07 18:00:00 13.4 8 Sur 18 Sudeste 0 1011.5 0.5 44
2018-02-07 17:00:00 12.9 12 Sudeste 26 Sur 0 1011.3 0.2 47
2018-02-07 16:00:00 14.6 13 Sur 22 Sudeste 0 1010.9 -0.8 40
2018-02-07 15:00:00 14.2 18 Sudeste 24 Sudeste 0 1011 -0.8 43
2018-02-07 14:00:00 14 9 Sur 18 Sudeste 0 1011.1 -0.2 46
2018-02-07 13:00:00 14.4 10 Sudeste 22 Sudeste 0 1011.7 0.5 44
2018-02-07 12:00:00 14.2 2 Oeste 26 Norte 0 1011.8 1.3 32
2018-02-07 11:00:00 12.5 20 Noroeste 32 Noroeste 0 1011.3 1.6 30
2018-02-07 10:00:00 11.2 19 Noroeste 32 Noroeste 0 1011.2 2.1 33
2018-02-07 09:00:00 8.8 18 Noroeste 35 Noroeste 0 1010.5 1.5 39
2018-02-07 08:00:00 9.4 22 Noroeste 35 Noroeste 0 1009.7 1.1 37
2018-02-07 07:00:00 9.1 26 Noroeste 37 Norte 0 1009.1 0.5 38
2018-02-07 06:00:00 8.7 21 Noroeste 41 Noroeste 0 1009 0.6 41
2018-02-07 05:00:00 8.8 27 Noroeste 41 Noroeste 0 1008.6 0.2 41
2018-02-07 04:00:00 8.9 26 Noroeste 39 Noroeste 0 1008.6 0.5 41
2018-02-07 03:00:00 9.1 22 Noroeste 41 Norte 0 1008.4 0.5 40
2018-02-07 02:00:00 9.2 27 Norte 45 Noroeste 0 1008.4 0.4 41
2018-02-07 01:00:00 9.4 30 Noroeste 42 Noroeste 0 1008.1 0.4 40
2018-02-07 00:00:00 9.4 31 Noroeste 54 Norte 0 1007.9 0.4 40
2018-02-06 23:00:00 9.4 25 Noroeste 50 Noroeste 0 1008 1.6 42
2018-02-06 22:00:00 9.9 30 Noroeste 50 Noroeste 0 1007.7 2.2 40
2018-02-06 21:00:00 10.2 35 Noroeste 58 Noroeste 0 1007.5 2.5 42
2018-02-06 20:00:00 10.4 30 Noroeste 45 Noroeste 0 1006.4 1.6 46
2018-02-06 19:00:00 11.1 18 Noroeste 30 Noroeste 0 1005.5 1 42
2018-02-06 18:00:00 12.1 11 Oeste 26 Sudoeste 0 1005 0.3 50
2018-02-06 17:00:00 13.5 18 Sudoeste 24 Sudoeste 0 1004.8 -0.1 52
2018-02-06 16:00:00 13.7 15 Sudoeste 28 Sur 0 1004.5 -0.5 48
2018-02-06 15:00:00 14 20 Sur 28 Sudoeste 0 1004.7 -0.5 52
2018-02-06 14:00:00 13.8 24 Sur 33 Sur 0 1004.9 -0.1 53
2018-02-06 13:00:00 13.9 15 Sur 24 Sudeste 0 1005 0.3 41
2018-02-06 12:00:00 13.6 4 Norte 30 Noroeste 0 1005.2 0.9 32
2018-02-06 11:00:00 12.2 18 Noroeste 33 Noroeste 0 1005 1.3 36
2018-02-06 10:00:00 10 21 Noroeste 35 Noroeste 0 1004.7 1 42
2018-02-06 09:00:00 7.3 21 Noroeste 33 Noroeste 0 1004.3 0.9 52
2018-02-06 08:00:00 8 21 Noroeste 35 Norte 0 1003.7 0.5 48
2018-02-06 07:00:00 6.1 14 Norte 32 Noroeste 0 1003.7 0.4 60
2018-02-06 06:00:00 6.1 19 Noroeste 30 Noroeste 0 1003.4 -0.1 61
2018-02-06 05:00:00 5.6 20 Noroeste 33 Noroeste 0 1003.2 -0.4 66
2018-02-06 04:00:00 6.3 23 Noroeste 35 Noroeste 0 1003.3 -0.4 65
2018-02-06 03:00:00 6.6 23 Noroeste 37 Noroeste 0 1003.5 -0.4 65
2018-02-06 02:00:00 7.3 18 Noroeste 28 Noroeste 0 1003.6 -0.5 66
2018-02-06 01:00:00 7.6 21 Noroeste 35 Noroeste 0 1003.7 -0.4 68
2018-02-06 00:00:00 8.1 20 Noroeste 30 Noroeste 0 1003.9 0.1 67
2018-02-05 23:00:00 8.5 13 Noroeste 30 Noroeste 0 1004.1 0.3 62
2018-02-05 22:00:00 8.7 16 Noroeste 26 Norte 0 1004.1 1.2 59
2018-02-05 21:00:00 9.5 17 Noroeste 28 Noroeste 0 1003.8 1.4 55
2018-02-05 20:00:00 9.5 20 Noroeste 41 Noroeste 0 1003.8 1.5 56
2018-02-05 19:00:00 10.9 11 Oeste 24 Sudoeste 0 1002.9 0.6 59
2018-02-05 18:00:00 12.6 20 Sudoeste 28 Sudoeste 0 1002.4 -0.1 54
2018-02-05 17:00:00 13.4 16 Sudoeste 30 Sudoeste 0 1002.3 -0.7 48
2018-02-05 16:00:00 13.3 23 Sudoeste 30 Sudoeste 0 1002.3 -1.5 50
2018-02-05 15:00:00 13.4 19 Sudoeste 28 Sudoeste 0 1002.5 -1.8 49
2018-02-05 14:00:00 13.4 7 Sur 18 Sudoeste 0 1003 -1.3 47
2018-02-05 13:00:00 12.5 9 Oeste 21 Noroeste 0 1003.8 -0.2 41
2018-02-05 12:00:00 11.3 15 Noroeste 28 Noroeste 0 1004.3 0.6 49
2018-02-05 11:00:00 9.4 19 Noroeste 28 Noroeste 0 1004.3 1 60
2018-02-05 10:00:00 8.1 19 Noroeste 26 Noroeste 0 1004 0.9 67
2018-02-05 09:00:00 6.2 18 Noroeste 26 Noroeste 0 1003.7 0.7 75
2018-02-05 08:00:00 6 18 Noroeste 28 Noroeste 0 1003.3 0.4 78
2018-02-05 07:00:00 6.2 18 Noroeste 26 Noroeste 0 1003.1 -0.2 81
2018-02-05 06:00:00 5.8 15 Noroeste 22 Noroeste 0 1003 -0.6 89
2018-02-05 05:00:00 6.4 10 Noroeste 17 Noroeste 0 1002.9 -1 89
2018-02-05 04:00:00 6.8 12 Norte 17 Norte 0 1003.3 -1 91
2018-02-05 03:00:00 7.9 6 Noroeste 11 Norte 0 1003.6 -1.5 90
2018-02-05 02:00:00 8.1 6 Norte 11 Norte 0 1003.9 -1.1 90
2018-02-05 01:00:00 8.7 0 Calma 30 Sudoeste 0.5 1004.3 -0.4 89
2018-02-05 00:00:00 9.2 26 Sudoeste 46 Sudoeste 1.2 1005.1 -0.1 89
2018-02-04 23:00:00 9.2 9 Oeste 22 Oeste 0 1005 -0.2 81
2018-02-04 22:00:00 9.6 8 Oeste 21 Oeste 0 1004.7 0.1 85
2018-02-04 21:00:00 9.4 9 Oeste 30 Oeste 0.3 1005.2 0.9 88
2018-02-04 20:00:00 9.4 23 Oeste 50 Sudoeste 1.3 1005.2 0.7 86
2018-02-04 19:00:00 12.1 31 Sudoeste 45 Oeste 0 1004.6 -0.1 70
2018-02-04 18:00:00 12.9 26 Sudoeste 42 Sudoeste 0 1004.3 -0.8 70
2018-02-04 17:00:00 13.7 27 Sudoeste 48 Sudoeste 0 1004.5 -1.2 54
2018-02-04 16:00:00 14 32 Sudoeste 45 Oeste 0 1004.7 -2 61
2018-02-04 15:00:00 13.8 29 Oeste 42 Sudoeste 0 1005.1 -2.1 60
2018-02-04 14:00:00 13.2 33 Oeste 50 Oeste 0 1005.7 -1.7 64
2018-02-04 13:00:00 12.8 40 Oeste 52 Oeste 0 1006.7 -0.9 66
2018-02-04 12:00:00 14.2 40 Sudoeste 55 Oeste 0 1007.2 -0.7 52
2018-02-04 11:00:00 12.2 21 Oeste 35 Oeste 0 1007.4 -0.7 50
2018-02-04 10:00:00 9.8 12 Norte 24 Noroeste 0 1007.6 -1 43
2018-02-04 09:00:00 8.3 15 Noroeste 24 Noroeste 0 1007.9 -1.4 44
2018-02-04 08:00:00 8.1 12 Noroeste 21 Noroeste 0 1008.1 -2.1 47
2018-02-04 07:00:00 7.5 9 Norte 13 Norte 0 1008.6 -2 52
2018-02-04 06:00:00 6.8 8 Nordeste 13 Nordeste 0 1009.3 -2 48
2018-02-04 05:00:00 7.1 0 Calma 17 Norte 0 1010.2 -1.9 46
2018-02-04 04:00:00 8.1 12 Norte 21 Noroeste 0 1010.6 -2.4 44
2018-02-04 03:00:00 8.3 12 Norte 24 Norte 0 1011.3 -2.3 43
2018-02-04 02:00:00 8.7 14 Noroeste 24 Norte 0 1012.1 -1.9 44
2018-02-04 01:00:00 8.6 10 Noroeste 28 Noroeste 0 1013 -1.6 46
2018-02-04 00:00:00 9.3 19 Noroeste 32 Noroeste 0 1013.6 -1.4 48
2018-02-03 23:00:00 8 12 Norte 17 Norte 0 1014 -1 63
2018-02-03 22:00:00 8 4 Norte 8 Nordeste 0 1014.6 0.1 61
2018-02-03 21:00:00 9.5 4 Norte 8 Nordeste 0 1015 0.8 55
2018-02-03 20:00:00 11.2 4 Sudoeste 18 Oeste 0 1015 0.7 49
2018-02-03 19:00:00 12.2 13 Sudoeste 32 Sudoeste 0 1014.5 0.1 49
2018-02-03 18:00:00 13.7 22 Sudoeste 32 Sudoeste 0 1014.2 -1 40
2018-02-03 17:00:00 14.7 24 Sudoeste 33 Sudoeste 0 1014.3 -2 41
2018-02-03 16:00:00 15.1 23 Sudoeste 30 Sudoeste 0 1014.4 -3.1 39
2018-02-03 15:00:00 15.5 19 Sudoeste 26 Sudoeste 0 1015.2 -2.7 39
2018-02-03 14:00:00 15.3 15 Sudoeste 21 Sudoeste 0 1016.3 -1.6 34
2018-02-03 13:00:00 15.4 9 Sur 17 Sur 0 1017.5 0 29
2018-02-03 12:00:00 15.2 6 Sudoeste 35 Noroeste 0 1017.9 1.1 24
2018-02-03 11:00:00 13 25 Noroeste 39 Noroeste 0 1017.9 1.4 27
2018-02-03 10:00:00 11.5 29 Noroeste 50 Norte 0 1017.5 1.1 29
2018-02-03 09:00:00 9.9 22 Norte 33 Noroeste 0 1016.8 0.7 32
2018-02-03 08:00:00 9.7 30 Noroeste 42 Noroeste 0 1016.5 1.9 30
2018-02-03 07:00:00 9.7 10 Noroeste 39 Sudoeste 0 1016.4 1.2 30
2018-02-03 06:00:00 9.7 18 Oeste 63 Oeste 0 1016.1 1.5 30
2018-02-03 05:00:00 9.3 30 Noroeste 48 Noroeste 0 1014.6 -0.2 35
2018-02-03 04:00:00 9.7 23 Noroeste 65 Noroeste 0 1015.2 0.7 34
2018-02-03 03:00:00 9.9 41 Noroeste 67 Noroeste 0 1014.6 -0.2 34
2018-02-03 02:00:00 10 33 Noroeste 55 Noroeste 0 1014.8 0.6 38
2018-02-03 01:00:00 10.1 28 Noroeste 42 Noroeste 0 1014.5 1.1 36
2018-02-03 00:00:00 9.9 16 Noroeste 32 Noroeste 0 1014.8 2.3 37
2018-02-02 23:00:00 10.2 19 Noroeste 33 Noroeste 0 1014.2 2.4 38
2018-02-02 22:00:00 10.5 26 Norte 39 Noroeste 0 1013.4 2.7 39
2018-02-02 21:00:00 10.6 10 Norte 32 Norte 0 1012.5 2.9 36
2018-02-02 20:00:00 10.8 18 Norte 41 Noroeste 0 1011.8 3 36
2018-02-02 19:00:00 11.1 25 Noroeste 50 Noroeste 0 1010.7 2.4 35
2018-02-02 18:00:00 11.9 28 Noroeste 48 Noroeste 0 1009.6 2 33
2018-02-02 17:00:00 12.1 32 Noroeste 59 Noroeste 0 1008.8 1.9 32
2018-02-02 16:00:00 13 37 Noroeste 59 Noroeste 0 1008.3 2 31
2018-02-02 15:00:00 11.9 40 Noroeste 67 Noroeste 0 1007.6 1.9 32
2018-02-02 14:00:00 13.3 39 Noroeste 72 Noroeste 0 1006.9 2.1 29
2018-02-02 13:00:00 12.8 44 Noroeste 72 Noroeste 0 1006.3 2.2 32
2018-02-02 12:00:00 11.3 46 Noroeste 71 Noroeste 0 1005.7 1.7 36
2018-02-02 11:00:00 10.5 47 Noroeste 71 Noroeste 0 1004.8 1.9 40
2018-02-02 10:00:00 9.9 39 Noroeste 59 Noroeste 0 1004.1 1.8 46
2018-02-02 09:00:00 9.3 24 Norte 42 Noroeste 0 1004 3.2 52
2018-02-02 08:00:00 9.4 20 Norte 33 Norte 0.9 1002.9 2.9 63
2018-02-02 07:00:00 8.6 15 Norte 46 Norte 0.7 1002.3 2 69
2018-02-02 06:00:00 10.3 28 Norte 48 Norte 0 1000.8 0.3 57
2018-02-02 05:00:00 10.8 16 Norte 35 Norte 0 1000 -0.9 55
2018-02-02 04:00:00 10.1 23 Norte 58 Norte 0.2 1000.3 -1 69
2018-02-02 03:00:00 13.3 25 Noroeste 48 Noroeste 0 1000.5 -1 45
2018-02-02 02:00:00 13.1 0 Calma 30 Noroeste 0 1000.9 -1.4 55
2018-02-02 01:00:00 13.4 11 Norte 48 Sudoeste 0 1001.3 -1.4 70
2018-02-02 00:00:00 14.8 34 Oeste 46 Sudoeste 0 1001.5 -1.7 70
2018-02-01 23:00:00 14.2 13 Oeste 39 Oeste 0 1002.3 -1.3 75
2018-02-01 22:00:00 14.8 23 Oeste 33 Oeste 0 1002.7 -0.4 75
2018-02-01 21:00:00 14.6 22 Sudoeste 42 Sudoeste 0 1003.2 -0.5 84
2018-02-01 20:00:00 14.7 19 Oeste 35 Oeste 0 1003.6 -0.7 81
2018-02-01 19:00:00 14.9 24 Sudoeste 42 Sudoeste 0 1003.1 -2 81
2018-02-01 18:00:00 15.3 31 Sudoeste 50 Oeste 0 1003.7 -2.5 77
2018-02-01 17:00:00 16 35 Sudoeste 48 Oeste 0 1004.3 -3.4 66
2018-02-01 16:00:00 16.8 33 Sudoeste 48 Sudoeste 0 1005.1 -4.4 68
2018-02-01 15:00:00 17.3 33 Sudoeste 50 Sudoeste 0 1006.2 -4.4 65
2018-02-01 14:00:00 16.9 30 Sudoeste 45 Sudoeste 0 1007.7 -3.7 66
2018-02-01 13:00:00 16.3 35 Sudoeste 50 Sudoeste 0 1009.5 -2.4 66
2018-02-01 12:00:00 16 30 Sudoeste 45 Sudoeste 0 1010.6 -1.4 70
2018-02-01 11:00:00 15.1 25 Sudoeste 35 Sudoeste 0 1011.4 -0.8 76
2018-02-01 10:00:00 13.7 21 Sudoeste 30 Sudoeste 0 1011.9 -0.5 85
2018-02-01 09:00:00 12.9 17 Sudoeste 24 Sudoeste 0 1012 -1 85
2018-02-01 08:00:00 12.8 3 Oeste 17 Sudoeste 0 1012.2 -1.1 75
2018-02-01 07:00:00 13 7 Oeste 26 Oeste 0 1012.4 -0.8 75
2018-02-01 06:00:00 13.2 18 Oeste 30 Oeste 0 1013 -0.6 79
2018-02-01 05:00:00 11.9 4 Noroeste 13 Nordeste 0 1013.3 -0.8 80
2018-02-01 04:00:00 11.5 8 Nordeste 13 Nordeste 0 1013.2 -2 83
2018-02-01 03:00:00 12.4 6 Este 33 Noroeste 0 1013.6 -2.2 77
2018-02-01 02:00:00 12.6 19 Noroeste 30 Noroeste 0 1014.1 -2.7 74
2018-02-01 01:00:00 12.1 3 Norte 33 Norte 0 1015.2 -1.1 86
2018-02-01 00:00:00 13 15 Nordeste 45 Noroeste 0 1015.8 -1.2 75
2018-01-31 23:00:00 13.1 10 Noroeste 26 Noroeste 0 1016.8 -0.2 76
2018-01-31 22:00:00 13.1 19 Noroeste 35 Noroeste 0.3 1016.3 -0.5 78
2018-01-31 21:00:00 13.8 6 Norte 18 Norte 0 1017 -0.6 70
2018-01-31 20:00:00 13.8 15 Nordeste 39 Este 0 1017 -0.9 73
2018-01-31 19:00:00 13.9 26 Este 39 Este 0 1016.8 0.2 75
2018-01-31 18:00:00 14.3 22 Nordeste 37 Este 0 1017.6 0.7 71
2018-01-31 17:00:00 14.9 21 Este 39 Este 0 1017.9 -0.4 62
2018-01-31 16:00:00 16.2 26 Este 42 Este 0 1016.6 -3.5 54
2018-01-31 15:00:00 17.3 27 Este 46 Este 0 1016.9 -4.7 45
2018-01-31 14:00:00 17.5 30 Este 46 Este 0 1018.3 -3.7 44
2018-01-31 13:00:00 18.4 18 Nordeste 26 Nordeste 0 1020.1 -1.7 41
2018-01-31 12:00:00 16.6 4 Norte 21 Noroeste 0 1021.6 -0.1 45
2018-01-31 11:00:00 14.4 8 Noroeste 28 Noroeste 0 1022 0.6 54
2018-01-31 10:00:00 13.2 16 Noroeste 30 Noroeste 0 1021.8 0.3 56
2018-01-31 09:00:00 11.4 19 Noroeste 30 Noroeste 0 1021.7 0.1 60
2018-01-31 08:00:00 10.1 15 Norte 26 Noroeste 0 1021.4 0.1 66
2018-01-31 07:00:00 9.3 13 Norte 22 Norte 0 1021.5 0 70
2018-01-31 06:00:00 10.3 7 Norte 21 Norte 0 1021.6 -0.3 67
2018-01-31 05:00:00 10 6 Norte 21 Noroeste 0 1021.3 -0.9 69
2018-01-31 04:00:00 11 10 Noroeste 24 Noroeste 0 1021.5 -0.7 66
2018-01-31 03:00:00 11.3 3 Norte 15 Noroeste 0 1021.9 -0.8 66
2018-01-31 02:00:00 10.1 6 Este 17 Nordeste 0 1022.2 -0.8 71
2018-01-31 01:00:00 11.8 2 Nordeste 5 Nordeste 0 1022.2 -0.9 66
2018-01-31 00:00:00 12.5 0 Calma 21 Nordeste 0 1022.7 -0.2 65
2018-01-30 23:00:00 13.3 9 Nordeste 26 Nordeste 0 1023 0.2 64
2018-01-30 22:00:00 13.3 8 Nordeste 35 Nordeste 0 1023.1 0.3 68
2018-01-30 21:00:00 13.6 27 Nordeste 37 Nordeste 0 1022.9 0.3 73
2018-01-30 20:00:00 14.1 22 Nordeste 39 Nordeste 0 1022.8 0.2 67
2018-01-30 19:00:00 14 21 Nordeste 45 Nordeste 0 1022.8 0.1 69
2018-01-30 18:00:00 15.6 31 Nordeste 48 Este 0 1022.6 -0.5 59
2018-01-30 17:00:00 16.5 37 Nordeste 54 Nordeste 0 1022.6 -1.7 53
2018-01-30 16:00:00 17.7 39 Nordeste 55 Nordeste 0 1022.7 -2.6 49
2018-01-30 15:00:00 18 37 Nordeste 58 Este 0 1023.1 -2.8 49
2018-01-30 14:00:00 17.9 37 Nordeste 54 Este 0 1024.3 -2 49
2018-01-30 13:00:00 18.2 33 Nordeste 52 Nordeste 0 1025.3 -0.9 50
2018-01-30 12:00:00 17 36 Nordeste 52 Nordeste 0 1025.9 0 54
2018-01-30 11:00:00 16.5 35 Nordeste 48 Nordeste 0 1026.3 0.3 56
2018-01-30 10:00:00 15.3 19 Nordeste 35 Norte 0 1026.2 0.6 57
2018-01-30 09:00:00 11.8 9 Norte 24 Noroeste 0 1025.9 0 66
2018-01-30 08:00:00 10.6 16 Norte 22 Noroeste 0 1026 0 67
2018-01-30 07:00:00 11.2 13 Norte 21 Norte 0 1025.6 -0.6 65
2018-01-30 06:00:00 11.1 6 Norte 17 Noroeste 0 1025.9 -0.6 66
2018-01-30 05:00:00 10.9 9 Noroeste 18 Noroeste 0 1026 -0.8 67
2018-01-30 04:00:00 11.7 3 Oeste 11 Oeste 0 1026.2 -1 62
2018-01-30 03:00:00 12.6 6 Norte 35 Nordeste 0 1026.5 -0.8 59
2018-01-30 02:00:00 12.9 27 Nordeste 41 Nordeste 0 1026.8 -1 65
2018-01-30 01:00:00 13.2 28 Nordeste 41 Nordeste 0 1027.2 -0.8 61
2018-01-30 00:00:00 13.6 17 Nordeste 35 Nordeste 0 1027.3 -0.8 55
2018-01-29 23:00:00 13.6 22 Nordeste 37 Nordeste 0 1027.8 -0.3 57
2018-01-29 22:00:00 13.6 20 Nordeste 41 Nordeste 0 1028 0.4 60
2018-01-29 21:00:00 13.9 25 Nordeste 41 Nordeste 0 1028.1 1.1 64
2018-01-29 20:00:00 14.2 26 Nordeste 42 Nordeste 0 1028.1 1.3 63
2018-01-29 19:00:00 14.6 27 Nordeste 50 Nordeste 0 1027.6 0.6 59
2018-01-29 18:00:00 15.7 33 Nordeste 59 Nordeste 0 1027 -0.3 55
2018-01-29 17:00:00 17.1 42 Nordeste 59 Nordeste 0 1026.8 -1.5 49
2018-01-29 16:00:00 18.1 44 Nordeste 63 Este 0 1027 -2.1 41
2018-01-29 15:00:00 18.3 46 Nordeste 67 Nordeste 0 1027.3 -2.6 44
2018-01-29 14:00:00 18 49 Nordeste 67 Nordeste 0 1028.3 -1.5 46
2018-01-29 13:00:00 17.9 39 Nordeste 68 Nordeste 0 1029.1 -0.1 49
2018-01-29 12:00:00 16.7 41 Nordeste 71 Nordeste 0 1029.9 0.6 52
2018-01-29 11:00:00 16.1 41 Nordeste 65 Nordeste 0 1029.8 0.8 53
2018-01-29 10:00:00 16.3 35 Nordeste 63 Nordeste 0 1029.2 0.6 52
2018-01-29 09:00:00 14.9 25 Norte 52 Nordeste 0 1029.3 1.4 57
2018-01-29 08:00:00 14.5 34 Nordeste 58 Nordeste 0 1029 1.6 61
2018-01-29 07:00:00 14.3 28 Nordeste 63 Nordeste 0 1028.6 0.7 62
2018-01-29 06:00:00 14.6 37 Nordeste 65 Nordeste 0 1027.9 0.2 58
2018-01-29 05:00:00 14.8 44 Nordeste 68 Nordeste 0 1027.4 -0.5 57
2018-01-29 04:00:00 14.9 41 Nordeste 72 Nordeste 0 1027.9 -0.6 57
2018-01-29 03:00:00 15.4 45 Nordeste 68 Nordeste 0 1027.7 -1 54
2018-01-29 02:00:00 15.4 40 Nordeste 65 Nordeste 0 1027.9 -0.6 55
2018-01-29 01:00:00 15.3 40 Nordeste 65 Nordeste 0 1028.5 0.1 59
2018-01-29 00:00:00 15 38 Nordeste 65 Nordeste 0 1028.7 0.3 62
2018-01-28 23:00:00 15.2 39 Nordeste 58 Nordeste 0 1028.5 0 53
2018-01-28 22:00:00 15.1 28 Nordeste 46 Nordeste 0 1028.4 0.6 48
2018-01-28 21:00:00 14 28 Nordeste 52 Nordeste 0 1028.4 0.7 60
2018-01-28 20:00:00 13.5 29 Nordeste 45 Nordeste 0 1028.5 1 62
2018-01-28 19:00:00 13.4 32 Nordeste 46 Nordeste 0 1027.8 0.5 63
2018-01-28 18:00:00 13.9 17 Nordeste 48 Este 0 1027.7 0.1 53
2018-01-28 17:00:00 14.8 32 Nordeste 52 Nordeste 0 1027.5 -0.2 51
2018-01-28 16:00:00 14.9 37 Nordeste 54 Este 0 1027.3 -0.3 52
2018-01-28 15:00:00 14.3 37 Este 54 Este 0 1027.6 0.8 55
2018-01-28 14:00:00 14.1 39 Este 58 Este 0 1027.7 1.9 60
2018-01-28 13:00:00 13.5 34 Este 58 Nordeste 0 1027.6 3.3 64
2018-01-28 12:00:00 11.3 41 Este 55 Este 0 1026.8 3.5 75
2018-01-28 11:00:00 11.1 39 Este 55 Este 0 1025.8 3.2 69
2018-01-28 10:00:00 11.1 28 Nordeste 59 Nordeste 0 1024.3 1.9 68
2018-01-28 09:00:00 10.1 18 Norte 41 Norte 0 1023.3 1.2 70
2018-01-28 08:00:00 9.4 23 Norte 50 Norte 0.9 1022.6 0.4 74
2018-01-28 07:00:00 10.3 14 Norte 37 Noroeste 0 1022.4 0.1 60
2018-01-28 06:00:00 10.2 20 Noroeste 35 Norte 0 1022.1 -0.1 60
2018-01-28 05:00:00 10.1 21 Norte 46 Noroeste 0 1022.2 0 59
2018-01-28 04:00:00 10.5 6 Norte 28 Norte 0 1022.3 -0.7 59
2018-01-28 03:00:00 10.4 6 Este 45 Norte 0 1022.2 -1.3 61
2018-01-28 02:00:00 9.7 21 Noroeste 46 Noroeste 0 1022.2 -1.4 68
2018-01-28 01:00:00 12.4 33 Nordeste 50 Nordeste 0 1023 -0.8 44
2018-01-28 00:00:00 12.6 9 Norte 22 Norte 0 1023.5 -0.3 34
2018-01-27 23:00:00 12.9 18 Nordeste 30 Norte 0 1023.6 0.2 32
2018-01-27 22:00:00 11.5 10 Norte 17 Nordeste 0 1023.8 0.8 56
2018-01-27 21:00:00 12.3 4 Oeste 11 Sudoeste 0 1023.8 1.1 49
2018-01-27 20:00:00 12.7 3 Noroeste 11 Sudoeste 0 1023.4 1.5 47
2018-01-27 19:00:00 12.8 0 Calma 28 Este 0 1023 1.6 45
2018-01-27 18:00:00 13.7 20 Este 30 Este 0 1022.7 1.5 42
2018-01-27 17:00:00 14.8 19 Este 33 Este 0 1021.9 0.3 39
2018-01-27 16:00:00 16.4 19 Nordeste 35 Nordeste 0 1021.4 -0.8 27
2018-01-27 15:00:00 16.8 20 Nordeste 39 Nordeste 0 1021.2 -1.4 27
2018-01-27 14:00:00 15.7 5 Noroeste 24 Nordeste 0 1021.6 -1.2 28
2018-01-27 13:00:00 16.4 9 Norte 39 Noroeste 0 1022.2 -0.4 28
2018-01-27 12:00:00 14.8 23 Noroeste 48 Noroeste 0 1022.6 0.3 31
2018-01-27 11:00:00 13.7 29 Noroeste 48 Noroeste 0 1022.8 0.6 33
2018-01-27 10:00:00 11.9 30 Noroeste 50 Noroeste 0 1022.6 1.6 36
2018-01-27 09:00:00 11.3 30 Noroeste 50 Noroeste 0 1022.3 1.7 38
2018-01-27 08:00:00 11.1 28 Noroeste 42 Noroeste 0 1022.2 1.5 39
2018-01-27 07:00:00 11.8 31 Noroeste 50 Noroeste 0 1021 0.2 35
2018-01-27 06:00:00 11.8 30 Noroeste 50 Noroeste 0 1020.6 -1 36
2018-01-27 05:00:00 12 29 Noroeste 54 Norte 0 1020.7 -0.5 36
2018-01-27 04:00:00 12.4 31 Noroeste 50 Noroeste 0 1020.8 -0.6 37
2018-01-27 03:00:00 13.3 26 Noroeste 50 Noroeste 0 1021.6 -0.6 38
2018-01-27 02:00:00 13.2 15 Noroeste 55 Noroeste 0 1021.2 -0.8 37
2018-01-27 01:00:00 13 30 Noroeste 48 Noroeste 0 1021.4 -0.4 37
2018-01-27 00:00:00 12.9 14 Noroeste 28 Noroeste 0 1022.2 0.6 39
2018-01-26 23:00:00 12.4 5 Noroeste 37 Noroeste 0 1022 1.1 40
2018-01-26 22:00:00 12.9 18 Noroeste 35 Norte 0 1021.8 1.2 38
2018-01-26 21:00:00 12.3 0 Calma 15 Sudeste 0 1021.6 1.9 38
2018-01-26 20:00:00 13.2 12 Noroeste 33 Noroeste 0 1020.9 2.1 35
2018-01-26 19:00:00 13.7 12 Noroeste 39 Oeste 0 1020.6 1.7 31
2018-01-26 18:00:00 15 28 Noroeste 54 Noroeste 0 1019.7 0.7 29
2018-01-26 17:00:00 16.1 37 Noroeste 55 Noroeste 0 1018.8 -0.7 26
2018-01-26 16:00:00 16.5 31 Noroeste 52 Noroeste 0 1018.9 -0.5 26
2018-01-26 15:00:00 15.4 35 Noroeste 52 Noroeste 0 1019 -0.3 29
2018-01-26 14:00:00 14.3 28 Noroeste 61 Noroeste 0 1019.5 1 32
2018-01-26 13:00:00 13.7 18 Noroeste 59 Noroeste 0 1019.4 1.8 34
2018-01-26 12:00:00 13.6 33 Noroeste 68 Norte 0 1019.3 3 35
2018-01-26 11:00:00 15.8 37 Noroeste 59 Noroeste 0 1018.5 3.8 30
2018-01-26 10:00:00 14.3 29 Noroeste 45 Noroeste 0 1017.6 3 31
2018-01-26 09:00:00 13.4 30 Noroeste 74 Noroeste 0 1016.3 2.9 32
2018-01-26 08:00:00 12.5 46 Noroeste 68 Noroeste 0 1014.7 1 38
2018-01-26 07:00:00 12.6 45 Norte 67 Noroeste 0 1014.6 0.1 40
2018-01-26 06:00:00 13 44 Norte 72 Norte 0 1013.4 -1.1 37
2018-01-26 05:00:00 13 28 Noroeste 50 Noroeste 0 1013.7 0 40
2018-01-26 04:00:00 13.6 10 Oeste 35 Oeste 0 1014.5 0.4 45
2018-01-26 03:00:00 13.8 22 Oeste 37 Oeste 0 1014.5 0.4 61
2018-01-26 02:00:00 13.5 13 Sudoeste 41 Sudoeste 0 1013.7 -0.2 84
2018-01-26 01:00:00 13.8 36 Sudoeste 58 Oeste 0 1014.1 0.1 86
2018-01-26 00:00:00 14.2 42 Oeste 63 Oeste 0 1014.1 -0.2 79
2018-01-25 23:00:00 14.4 35 Sudoeste 48 Sudoeste 0 1013.9 -0.9 81
2018-01-25 22:00:00 14.1 18 Oeste 30 Oeste 0 1014 -0.8 80
2018-01-25 21:00:00 14 16 Oeste 41 Oeste 0 1014.3 -0.6 86
2018-01-25 20:00:00 14.3 25 Oeste 39 Oeste 0 1014.8 -0.3 87
2018-01-25 19:00:00 14.8 8 Oeste 39 Oeste 0 1014.8 -0.7 85
2018-01-25 18:00:00 15.2 23 Oeste 52 Oeste 0 1014.9 -1.7 79
2018-01-25 17:00:00 15.8 40 Sudoeste 59 Sudoeste 0 1015.1 -2.9 76
2018-01-25 16:00:00 16.1 41 Sudoeste 55 Sudoeste 0 1015.5 -3.8 74
2018-01-25 15:00:00 16.7 35 Sudoeste 46 Sudoeste 0 1016.6 -3.9 69
2018-01-25 14:00:00 16 26 Sudoeste 42 Sudoeste 0 1018 -3.1 71
2018-01-25 13:00:00 16 30 Sudoeste 39 Sudoeste 0 1019.3 -1.7 70
2018-01-25 12:00:00 15.4 25 Sudoeste 35 Sudoeste 0 1020.5 -0.7 70
2018-01-25 11:00:00 14.5 21 Sudoeste 30 Oeste 0 1021.1 -0.1 71
2018-01-25 10:00:00 13.3 2 Oeste 8 Oeste 0 1021 0 77
2018-01-25 09:00:00 12.8 0 Calma 13 Sudoeste 0 1021.2 0.2 80
2018-01-25 08:00:00 12.7 4 Oeste 8 Oeste 0 1021.2 0 82
2018-01-25 07:00:00 12.5 3 Noroeste 11 Noroeste 0 1021 -0.7 83
2018-01-25 06:00:00 12.3 5 Noroeste 11 Noroeste 0 1021 -1.1 84
2018-01-25 05:00:00 12.3 5 Noroeste 13 Noroeste 0 1021.2 -1.5 84
2018-01-25 04:00:00 12.4 8 Noroeste 13 Noroeste 0 1021.7 -1.5 84
2018-01-25 03:00:00 12.6 6 Noroeste 13 Oeste 0 1022.1 -1.7 84
2018-01-25 02:00:00 12.8 3 Este 5 Este 0 1022.7 -1 89
2018-01-25 01:00:00 13.1 2 Este 4 Este 0 1023.2 -0.5 88
2018-01-25 00:00:00 13.2 3 Nordeste 8 Nordeste 0 1023.8 0 88
2018-01-24 23:00:00 13.4 4 Este 8 Este 0 1023.7 -0.2 86
2018-01-24 22:00:00 13.6 0 Calma 8 Oeste 0 1023.7 0.1 88
2018-01-24 21:00:00 13.8 5 Noroeste 11 Noroeste 0 1023.8 0.4 86
2018-01-24 20:00:00 14.1 5 Oeste 13 Sudoeste 0 1023.9 0.7 87
2018-01-24 19:00:00 14.1 7 Sudoeste 13 Sudoeste 0 1023.6 0.5 87
2018-01-24 18:00:00 14.8 6 Sur 17 Sur 0 1023.4 -0.2 84
2018-01-24 17:00:00 16.1 13 Sur 18 Sudoeste 0 1023.2 -1.3 79
2018-01-24 16:00:00 16.8 13 Sur 17 Sur 0 1023.1 -2.1 77
2018-01-24 15:00:00 17.2 11 Sur 18 Sudoeste 0 1023.6 -2.3 74
2018-01-24 14:00:00 16.7 14 Sudoeste 21 Sudoeste 0 1024.5 -1.7 72
2018-01-24 13:00:00 16.5 15 Sudoeste 21 Sudoeste 0 1025.2 -0.8 69
2018-01-24 12:00:00 17.6 6 Sur 11 Sur 0 1025.9 0.2 55
2018-01-24 11:00:00 16.4 0 Calma 15 Norte 0 1026.2 0.8 49
2018-01-24 10:00:00 13 6 Norte 21 Norte 0 1026 0.8 59
2018-01-24 09:00:00 9.2 12 Norte 15 Noroeste 0 1025.7 0.9 80
2018-01-24 08:00:00 8.8 9 Norte 17 Noroeste 0 1025.4 0.6 80
2018-01-24 07:00:00 8.3 0 Calma 8 Norte 0 1025.2 0.4 83
2018-01-24 06:00:00 9 3 Este 13 Nordeste 0 1024.8 -0.2 77
2018-01-24 05:00:00 10.9 13 Nordeste 18 Norte 0 1024.8 -0.4 69
2018-01-24 04:00:00 11.3 12 Norte 21 Norte 0 1024.8 -0.7 68
2018-01-24 03:00:00 10.8 14 Norte 18 Norte 0 1025 -0.7 74
2018-01-24 02:00:00 9.1 2 Norte 5 Nordeste 0 1025.2 -0.2 83
2018-01-24 01:00:00 12 3 Noroeste 13 Norte 0 1025.5 0.2 69
2018-01-24 00:00:00 11.5 0 Calma 13 Nordeste 0 1025.7 0.6 76
2018-01-23 23:00:00 12.6 6 Oeste 13 Oeste 0 1025.4 0.5 71
2018-01-23 22:00:00 11.3 0 Calma 8 Norte 0 1025.3 0.9 81
2018-01-23 21:00:00 12.2 4 Norte 11 Norte 0 1025.1 1.3 78
2018-01-23 20:00:00 12.7 5 Norte 8 Noroeste 0 1024.9 1.2 80
2018-01-23 19:00:00 14.8 0 Calma 2 Sur 0 1024.4 0.9 71
2018-01-23 18:00:00 16.9 0 Calma 8 Sur 0 1023.8 0.2 63
2018-01-23 17:00:00 17.7 4 Sur 11 Sur 0 1023.7 -0.3 61
2018-01-23 16:00:00 17.6 4 Sur 13 Sudoeste 0 1023.5 -1.1 63
2018-01-23 15:00:00 17.1 5 Sudoeste 13 Sudoeste 0 1023.6 -1.3 66
2018-01-23 14:00:00 16.2 6 Sudoeste 15 Sudoeste 0 1024 -1 71
2018-01-23 13:00:00 14.9 12 Sudoeste 18 Sudoeste 0 1024.6 0.1 81
2018-01-23 12:00:00 14.4 11 Sudoeste 17 Sudoeste 0 1024.9 0.9 83
2018-01-23 11:00:00 13.3 0 Calma 5 Sur 0 1025 1.5 80
2018-01-23 10:00:00 11.5 0 Calma 5 Noroeste 0 1024.5 1.5 96
2018-01-23 09:00:00 7.3 3 Norte 5 Norte 0 1024 1.5 99
2018-01-23 08:00:00 8.1 0 Calma 8 Nordeste 0 1023.5 1.1 99
2018-01-23 07:00:00 9.3 2 Nordeste 9 Norte 0 1023 0.4 99
2018-01-23 06:00:00 9.9 4 Nordeste 8 Nordeste 0 1022.5 0 99
2018-01-23 05:00:00 10.1 4 Nordeste 8 Nordeste 0 1022.4 0.2 97
2018-01-23 04:00:00 8.1 2 Nordeste 11 Nordeste 0 1022.6 0.3 87
2018-01-23 03:00:00 10.1 5 Nordeste 11 Nordeste 0 1022.5 0 88
2018-01-23 02:00:00 10.9 7 Norte 13 Nordeste 0 1022.2 -0.2 92
2018-01-23 01:00:00 11 7 Nordeste 13 Nordeste 0 1022.3 -0.2 92
2018-01-23 00:00:00 10.7 4 Nordeste 5 Nordeste 0 1022.5 0 91
2018-01-22 23:00:00 10.9 2 Nordeste 11 Nordeste 0 1022.4 -0.1 90
2018-01-22 22:00:00 11.5 3 Nordeste 5 Nordeste 0 1022.5 0.3 87
2018-01-22 21:00:00 12.6 4 Norte 8 Norte 0 1022.5 0.5 88
2018-01-22 20:00:00 13.3 4 Este 5 Este 0 1022.5 0.6 92
2018-01-22 19:00:00 14.1 4 Este 8 Este 0 1022.2 0.3 86
2018-01-22 18:00:00 16.5 4 Este 8 Este 0 1022 -0.2 78
2018-01-22 17:00:00 17.7 2 Sur 8 Sur 0 1021.9 -1.1 71
2018-01-22 16:00:00 15.9 0 Calma 11 Sudeste 0 1021.9 -1.8 88
2018-01-22 15:00:00 17.6 6 Sur 11 Sur 0 1022.2 -2.1 82
2018-01-22 14:00:00 17.4 5 Sur 15 Sudoeste 0 1023 -1.6 82
2018-01-22 13:00:00 17.3 4 Sur 13 Sur 0 1023.7 -0.6 76
2018-01-22 12:00:00 16.5 8 Sudoeste 18 Sur 0 1024.3 0 71
2018-01-22 11:00:00 16.8 5 Sudoeste 18 Oeste 0 1024.6 0.7 67
2018-01-22 10:00:00 16.1 10 Noroeste 18 Norte 0 1024.3 0.8 48
2018-01-22 09:00:00 12.8 10 Noroeste 18 Norte 0 1024.3 0.9 56
2018-01-22 08:00:00 11.5 12 Noroeste 17 Noroeste 0 1023.9 0.5 60
2018-01-22 07:00:00 11.9 10 Noroeste 18 Noroeste 0 1023.5 -0.1 59
2018-01-22 06:00:00 11.9 8 Noroeste 15 Noroeste 0 1023.4 0 59
2018-01-22 05:00:00 13.2 0 Calma 11 Oeste 0 1023.4 -0.3 64
2018-01-22 04:00:00 12.9 2 Sudeste 17 Norte 0 1023.6 -0.7 65
2018-01-22 03:00:00 15.2 9 Norte 35 Norte 0 1023.4 -0.8 49
2018-01-22 02:00:00 15 13 Norte 21 Norte 0 1023.7 -0.2 54
2018-01-22 01:00:00 11.9 0 Calma 15 Norte 0 1024.3 0.5 63
2018-01-22 00:00:00 14.3 4 Norte 18 Noroeste 0 1024.2 0.7 53